Time;durP1;ratioP1;P1;durP2;ratioP2;P2;SDS_P1;SDS_P2;PMS_P1;PMS_P2;Temp;Humidity;BMP_temperature;BMP_pressure;BME280_temperature;BME280_humidity;BME280_pressure;Samples;Min_cycle;Max_cycle;Signal;HPM_P1;HPM_P2
2023/02/17 00:00:10;;;;;;;29.40;21.67;;;11.10;99.90;;;;;;5045721;28;20045;-76
2023/02/17 00:02:36;;;;;;;34.75;25.17;;;11.10;99.90;;;;;;5044847;28;20025;-77
2023/02/17 00:05:02;;;;;;;36.33;24.98;;;11.10;99.90;;;;;;5049908;28;20025;-77
2023/02/17 00:07:30;;;;;;;35.38;25.45;;;11.20;99.90;;;;;;5053169;28;20029;-76
2023/02/17 00:09:57;;;;;;;30.13;22.35;;;11.10;99.90;;;;;;5046572;28;20029;-76
2023/02/17 00:12:23;;;;;;;31.52;23.55;;;11.10;99.90;;;;;;5051015;28;20036;-77
2023/02/17 00:14:49;;;;;;;33.72;22.63;;;11.20;99.90;;;;;;5052849;28;20529;-77
2023/02/17 00:17:15;;;;;;;33.33;23.48;;;11.20;99.90;;;;;;5044077;28;20029;-77
2023/02/17 00:19:41;;;;;;;31.27;23.10;;;11.20;99.90;;;;;;5043252;28;20017;-78
2023/02/17 00:22:07;;;;;;;31.13;22.95;;;11.20;99.90;;;;;;5052537;28;20033;-76
2023/02/17 00:24:35;;;;;;;27.35;20.83;;;11.20;99.90;;;;;;5042101;28;20025;-76
2023/02/17 00:27:01;;;;;;;30.45;22.15;;;11.20;99.90;;;;;;5051826;28;20494;-77
2023/02/17 00:29:27;;;;;;;29.25;21.60;;;11.20;99.90;;;;;;5052169;28;20021;-77
2023/02/17 00:31:53;;;;;;;29.67;20.77;;;11.20;99.90;;;;;;5050903;28;20085;-75
2023/02/17 00:34:19;;;;;;;29.92;21.55;;;11.20;99.90;;;;;;5051269;28;20025;-77
2023/02/17 00:36:45;;;;;;;29.83;20.67;;;11.20;99.90;;;;;;5051984;28;20446;-77
2023/02/17 00:39:13;;;;;;;24.92;17.85;;;11.20;99.90;;;;;;5051600;28;20033;-77
2023/02/17 00:41:39;;;;;;;24.88;18.48;;;11.20;99.90;;;;;;5032622;28;20050;-77
2023/02/17 00:44:05;;;;;;;24.58;18.15;;;11.20;99.90;;;;;;5044392;28;20021;-77
2023/02/17 00:46:31;;;;;;;23.00;18.58;;;11.20;99.90;;;;;;5049547;28;20471;-77
2023/02/17 00:48:57;;;;;;;27.25;19.50;;;11.30;99.90;;;;;;5050613;28;20024;-77
2023/02/17 00:51:24;;;;;;;25.60;17.67;;;11.30;99.90;;;;;;5051358;28;20498;-77
2023/02/17 00:53:50;;;;;;;24.13;17.10;;;11.30;99.90;;;;;;5049374;28;20127;-76
2023/02/17 00:56:16;;;;;;;22.83;16.90;;;11.30;99.90;;;;;;5051657;28;20029;-77
2023/02/17 00:58:42;;;;;;;21.55;16.58;;;11.30;99.90;;;;;;5047801;28;20066;-76
2023/02/17 01:01:09;;;;;;;21.35;16.52;;;11.30;99.90;;;;;;5051147;28;20108;-77
2023/02/17 01:03:41;;;;;;;20.70;16.30;;;11.30;99.90;;;;;;5043959;28;20017;-77
2023/02/17 01:06:09;;;;;;;19.63;14.23;;;11.30;99.90;;;;;;5050996;28;20650;-77
2023/02/17 01:08:35;;;;;;;22.73;17.02;;;11.30;99.90;;;;;;5049604;28;20110;-78
2023/02/17 01:11:01;;;;;;;22.08;17.67;;;11.40;99.90;;;;;;5049010;28;20052;-77
2023/02/17 01:13:27;;;;;;;20.90;16.10;;;11.30;99.90;;;;;;5047266;28;20045;-77
2023/02/17 01:15:53;;;;;;;21.70;16.75;;;11.40;99.90;;;;;;5048310;28;20025;-78
2023/02/17 01:18:21;;;;;;;22.00;17.05;;;11.40;99.90;;;;;;5051257;28;20067;-78
2023/02/17 01:20:47;;;;;;;19.73;15.68;;;11.50;99.90;;;;;;5049698;28;20435;-78
2023/02/17 01:23:14;;;;;;;19.10;14.90;;;11.40;99.90;;;;;;5039602;28;20032;-77
2023/02/17 01:25:42;;;;;;;20.85;16.15;;;11.50;99.90;;;;;;5045744;28;20029;-77
2023/02/17 01:28:10;;;;;;;20.50;15.43;;;11.50;99.90;;;;;;5050339;28;20029;-77
2023/02/17 01:30:35;;;;;;;22.75;18.40;;;11.40;99.90;;;;;;5050124;28;20045;-79
2023/02/17 01:33:01;;;;;;;19.30;14.25;;;11.40;99.90;;;;;;5050691;28;20031;-78
2023/02/17 01:35:27;;;;;;;21.42;17.63;;;11.40;99.90;;;;;;5049314;28;20104;-78
2023/02/17 01:37:52;;;;;;;19.92;15.15;;;11.40;99.90;;;;;;5035993;28;20036;-78
2023/02/17 01:40:18;;;;;;;22.33;16.70;;;11.40;99.90;;;;;;5051505;28;20028;-77
2023/02/17 01:42:44;;;;;;;24.77;19.65;;;11.30;99.90;;;;;;5043208;28;20018;-77
2023/02/17 01:45:18;;;;;;;20.55;16.77;;;11.30;99.90;;;;;;5037118;28;20021;-77
2023/02/17 01:48:01;;;;;;;23.38;18.65;;;11.40;99.90;;;;;;5049977;28;20095;-76
2023/02/17 01:50:33;;;;;;;23.40;18.98;;;11.40;99.90;;;;;;5050516;28;20101;-77
2023/02/17 01:53:01;;;;;;;23.50;17.60;;;11.40;99.90;;;;;;5053726;28;20021;-77
2023/02/17 01:55:27;;;;;;;24.73;18.95;;;11.40;99.90;;;;;;5041036;28;20020;-76
2023/02/17 01:57:56;;;;;;;25.67;20.38;;;11.40;99.90;;;;;;5055425;28;20048;-78
2023/02/17 02:00:24;;;;;;;28.50;21.23;;;11.30;99.90;;;;;;5054913;28;20021;-78
2023/02/17 02:02:50;;;;;;;27.60;20.73;;;11.30;99.90;;;;;;5047251;28;20029;-78
2023/02/17 02:05:18;;;;;;;23.67;18.05;;;11.20;99.90;;;;;;5053502;28;20110;-77
2023/02/17 02:07:46;;;;;;;27.52;19.75;;;11.30;99.90;;;;;;5055130;28;20021;-77
2023/02/17 02:10:15;;;;;;;29.35;22.05;;;11.30;99.90;;;;;;5051849;28;20060;-78
2023/02/17 02:12:42;;;;;;;28.95;20.38;;;11.30;99.90;;;;;;5054140;28;20506;-76
2023/02/17 02:15:14;;;;;;;32.72;22.73;;;11.20;99.90;;;;;;5054933;28;20033;-77
2023/02/17 02:18:22;;;;;;;24.58;17.73;;;11.20;99.90;;;;;;5054014;28;20029;-77
2023/02/17 02:21:35;;;;;;;35.35;21.90;;;11.20;99.90;;;;;;5054605;28;20100;-78
2023/02/17 02:24:14;;;;;;;31.65;22.45;;;11.20;99.90;;;;;;5051877;28;20033;-78
2023/02/17 02:27:09;;;;;;;36.45;23.10;;;11.20;99.90;;;;;;5054776;28;20021;-78
2023/02/17 02:30:07;;;;;;;42.17;23.33;;;11.20;99.90;;;;;;5054388;28;20029;-76
2023/02/17 02:32:45;;;;;;;42.25;24.73;;;11.20;99.90;;;;;;5050980;28;20118;-79
2023/02/17 02:35:18;;;;;;;37.47;24.38;;;11.20;99.90;;;;;;5054427;28;20032;-78
2023/02/17 02:38:16;;;;;;;40.90;27.70;;;11.10;99.90;;;;;;5053888;28;20021;-79
2023/02/17 02:40:52;;;;;;;33.22;22.70;;;11.10;99.90;;;;;;5033791;28;20076;-79
2023/02/17 02:43:18;;;;;;;36.38;23.70;;;11.10;99.90;;;;;;5040184;28;20075;-77
2023/02/17 02:45:44;;;;;;;39.50;24.77;;;11.10;99.90;;;;;;5035498;28;20548;-77
2023/02/17 02:48:10;;;;;;;39.95;25.70;;;11.10;99.90;;;;;;5044922;28;20029;-77
2023/02/17 02:50:54;;;;;;;34.55;22.10;;;11.10;99.90;;;;;;5053738;28;20028;-78
2023/02/17 02:53:45;;;;;;;32.78;22.15;;;11.20;99.90;;;;;;5055868;28;20040;-78
2023/02/17 02:56:39;;;;;;;38.83;23.60;;;11.10;99.90;;;;;;5053186;28;20036;-77
2023/02/17 02:59:57;;;;;;;34.95;22.38;;;11.10;99.90;;;;;;5042707;28;20444;-79
2023/02/17 03:02:54;;;;;;;35.03;21.95;;;11.10;99.90;;;;;;5047212;28;20550;-78
2023/02/17 03:05:51;;;;;;;37.35;25.13;;;11.10;99.90;;;;;;5042051;28;20025;-77
2023/02/17 03:08:25;;;;;;;32.53;21.55;;;11.10;99.90;;;;;;5053455;28;20056;-77
2023/02/17 03:10:53;;;;;;;38.60;26.48;;;11.10;99.90;;;;;;5053385;28;20380;-77
2023/02/17 03:13:20;;;;;;;32.97;22.27;;;11.10;99.90;;;;;;5052384;28;20025;-77
2023/02/17 03:15:46;;;;;;;33.95;22.58;;;11.10;99.90;;;;;;5049167;28;20017;-77
2023/02/17 03:18:13;;;;;;;29.42;20.48;;;11.10;99.90;;;;;;5053144;28;20044;-78
2023/02/17 03:20:49;;;;;;;29.52;19.95;;;11.20;99.90;;;;;;5053876;28;20104;-77
2023/02/17 03:23:15;;;;;;;29.38;19.75;;;11.20;99.90;;;;;;5053702;28;20028;-77
2023/02/17 03:25:40;;;;;;;30.45;20.90;;;11.20;99.90;;;;;;5053777;28;20104;-78
2023/02/17 03:28:06;;;;;;;30.85;21.05;;;11.20;99.90;;;;;;5047520;28;20017;-76
2023/02/17 03:30:32;;;;;;;26.17;18.63;;;11.20;99.90;;;;;;5052132;28;20049;-78
2023/02/17 03:32:57;;;;;;;29.48;18.85;;;11.20;99.90;;;;;;5053388;28;20108;-78
2023/02/17 03:35:23;;;;;;;27.48;18.75;;;11.10;99.90;;;;;;5053259;28;20036;-76
2023/02/17 03:37:48;;;;;;;23.15;16.02;;;11.10;99.90;;;;;;5053221;28;20048;-77
2023/02/17 03:40:14;;;;;;;24.30;17.13;;;11.10;99.90;;;;;;5052495;28;20028;-76
2023/02/17 03:42:40;;;;;;;24.60;15.80;;;11.10;99.90;;;;;;5051306;28;20029;-78
2023/02/17 03:45:05;;;;;;;26.25;16.83;;;11.20;99.90;;;;;;5046325;28;20021;-77
2023/02/17 03:47:31;;;;;;;26.45;18.95;;;11.20;99.90;;;;;;5053238;28;20108;-76
2023/02/17 03:49:57;;;;;;;26.30;17.48;;;11.10;99.90;;;;;;5052566;28;20021;-78
2023/02/17 03:52:22;;;;;;;28.77;19.27;;;11.10;99.90;;;;;;5052143;28;20079;-77
2023/02/17 03:54:48;;;;;;;27.75;17.92;;;11.20;99.90;;;;;;5051426;28;20025;-77
2023/02/17 03:57:13;;;;;;;24.05;16.65;;;11.20;99.90;;;;;;5048815;28;20029;-77
2023/02/17 03:59:39;;;;;;;24.70;17.35;;;11.20;99.90;;;;;;5050622;28;20017;-75
2023/02/17 04:02:05;;;;;;;22.90;16.33;;;11.20;99.90;;;;;;5052522;28;20021;-75
2023/02/17 04:04:30;;;;;;;23.88;15.70;;;11.10;99.90;;;;;;5052051;28;20017;-77
2023/02/17 04:06:58;;;;;;;24.00;15.98;;;11.20;99.90;;;;;;5053481;28;20475;-77
2023/02/17 04:09:25;;;;;;;21.65;16.05;;;11.20;99.90;;;;;;5053723;28;20031;-76
2023/02/17 04:11:50;;;;;;;23.38;15.77;;;11.10;99.90;;;;;;5048360;28;20029;-77
2023/02/17 04:14:16;;;;;;;20.20;15.25;;;11.20;99.90;;;;;;5052915;28;20330;-77
2023/02/17 04:16:42;;;;;;;21.13;13.82;;;11.20;99.90;;;;;;5051816;28;20029;-76
2023/02/17 04:19:07;;;;;;;22.95;14.48;;;11.20;99.90;;;;;;5040576;28;20029;-76
2023/02/17 04:21:33;;;;;;;22.73;16.05;;;11.20;99.90;;;;;;5049239;28;20021;-76
2023/02/17 04:24:00;;;;;;;19.33;14.23;;;11.20;99.90;;;;;;5050330;28;20061;-77
2023/02/17 04:26:25;;;;;;;21.08;14.40;;;11.10;99.90;;;;;;5049753;28;20025;-76
2023/02/17 04:28:51;;;;;;;21.55;14.07;;;11.10;99.90;;;;;;5050557;28;20402;-76
2023/02/17 04:31:17;;;;;;;20.70;13.45;;;11.20;99.90;;;;;;5050155;28;20182;-77
2023/02/17 04:33:42;;;;;;;21.13;15.55;;;11.10;99.90;;;;;;5046712;28;20021;-76
2023/02/17 04:36:08;;;;;;;21.10;14.48;;;11.10;99.90;;;;;;5038519;28;20120;-77
2023/02/17 04:38:34;;;;;;;20.70;15.23;;;11.10;99.90;;;;;;5045050;28;20036;-76
2023/02/17 04:41:00;;;;;;;22.42;16.35;;;11.10;99.90;;;;;;5036679;28;20167;-76
2023/02/17 04:43:27;;;;;;;21.52;14.73;;;11.20;99.90;;;;;;5048959;28;20836;-76
2023/02/17 04:45:54;;;;;;;24.02;15.40;;;11.10;99.90;;;;;;5035849;28;20025;-77
2023/02/17 04:48:20;;;;;;;26.13;17.85;;;11.20;99.90;;;;;;5050400;28;20495;-77
2023/02/17 04:50:46;;;;;;;20.67;13.55;;;11.30;99.90;;;;;;5050294;28;20025;-76
2023/02/17 04:53:12;;;;;;;28.48;18.67;;;11.30;99.90;;;;;;5051887;28;20047;-77
2023/02/17 04:55:39;;;;;;;25.88;19.67;;;11.20;99.90;;;;;;5066221;28;20025;-76
2023/02/17 04:58:04;;;;;;;30.98;20.90;;;11.20;99.90;;;;;;5042642;28;20030;-76
2023/02/17 05:00:30;;;;;;;33.13;22.15;;;11.20;99.90;;;;;;5049906;28;20395;-75
2023/02/17 05:02:56;;;;;;;30.80;22.20;;;11.20;99.90;;;;;;5049880;28;20025;-77
2023/02/17 05:05:22;;;;;;;32.03;23.17;;;11.20;99.90;;;;;;5051102;28;20032;-77
2023/02/17 05:07:48;;;;;;;33.15;22.27;;;11.20;99.90;;;;;;5050320;28;20047;-76
2023/02/17 05:10:15;;;;;;;28.83;20.95;;;11.20;99.90;;;;;;5050930;28;20021;-76
2023/02/17 05:12:41;;;;;;;33.55;21.85;;;11.20;99.90;;;;;;5041705;28;20029;-76
2023/02/17 05:15:07;;;;;;;33.05;24.08;;;11.20;99.90;;;;;;5051553;28;20107;-76
2023/02/17 05:17:33;;;;;;;35.17;22.90;;;11.20;99.90;;;;;;5050590;28;20021;-75
2023/02/17 05:19:59;;;;;;;33.85;23.98;;;11.10;99.90;;;;;;5051274;28;20063;-76
2023/02/17 05:22:25;;;;;;;36.20;24.98;;;11.10;99.90;;;;;;5049864;28;20025;-76
2023/02/17 05:24:51;;;;;;;41.38;27.42;;;11.10;99.90;;;;;;5038989;28;20025;-75
2023/02/17 05:27:17;;;;;;;37.88;25.23;;;11.00;99.90;;;;;;5040333;28;21243;-76
2023/02/17 05:29:43;;;;;;;43.47;28.40;;;11.00;99.90;;;;;;5042820;28;20025;-76
2023/02/17 05:32:09;;;;;;;46.63;29.63;;;11.00;99.90;;;;;;5039015;28;20075;-76
2023/02/17 05:34:35;;;;;;;41.92;26.80;;;11.00;99.90;;;;;;5045469;28;20017;-77
2023/02/17 05:37:01;;;;;;;45.47;27.92;;;10.90;99.90;;;;;;5039369;28;20024;-76
2023/02/17 05:39:27;;;;;;;49.10;29.58;;;10.90;99.90;;;;;;5046280;28;20102;-75
2023/02/17 05:41:52;;;;;;;42.13;28.08;;;10.90;99.90;;;;;;5038724;28;20037;-77
2023/02/17 05:44:18;;;;;;;38.60;25.42;;;10.90;99.90;;;;;;5042036;28;20511;-77
2023/02/17 05:46:44;;;;;;;37.90;24.65;;;10.80;99.90;;;;;;5040499;28;20056;-76
2023/02/17 05:49:09;;;;;;;40.80;27.17;;;10.90;99.90;;;;;;5043238;28;20458;-75
2023/02/17 05:51:36;;;;;;;41.13;24.63;;;10.90;99.90;;;;;;5039038;28;20029;-75
2023/02/17 05:54:02;;;;;;;43.38;28.70;;;10.90;99.90;;;;;;5043842;28;20049;-76
2023/02/17 05:56:27;;;;;;;42.63;27.42;;;10.90;99.90;;;;;;5038104;28;20106;-76
2023/02/17 05:58:53;;;;;;;37.08;24.80;;;11.00;99.90;;;;;;5041852;28;20537;-76
2023/02/17 06:01:19;;;;;;;38.80;24.55;;;11.00;99.90;;;;;;5039492;28;20394;-76
2023/02/17 06:03:44;;;;;;;37.83;25.98;;;11.00;99.90;;;;;;5035572;28;20033;-77
2023/02/17 06:06:10;;;;;;;38.58;25.90;;;11.00;99.90;;;;;;5041091;28;20034;-76
2023/02/17 06:08:36;;;;;;;40.28;27.10;;;11.00;99.90;;;;;;5039818;28;20468;-76
2023/02/17 06:11:02;;;;;;;37.08;23.60;;;11.00;99.90;;;;;;5039479;28;20040;-77
2023/02/17 06:13:29;;;;;;;38.00;24.08;;;11.00;99.90;;;;;;5039072;28;20029;-76
2023/02/17 06:15:54;;;;;;;36.75;24.77;;;11.00;99.90;;;;;;5045352;28;20436;-76
2023/02/17 06:18:20;;;;;;;32.38;22.13;;;11.00;99.90;;;;;;5039074;28;20590;-78
2023/02/17 06:20:46;;;;;;;33.28;22.75;;;11.00;99.90;;;;;;5041225;28;20160;-76
2023/02/17 06:23:11;;;;;;;32.92;22.58;;;11.00;99.90;;;;;;5039248;28;20402;-77
2023/02/17 06:25:37;;;;;;;31.23;23.33;;;11.00;99.90;;;;;;5044816;28;20330;-77
2023/02/17 06:28:03;;;;;;;30.50;21.92;;;11.00;99.90;;;;;;5038494;28;20043;-76
2023/02/17 06:30:29;;;;;;;32.10;21.52;;;11.00;99.90;;;;;;5039324;28;20286;-77
2023/02/17 06:32:54;;;;;;;29.60;20.75;;;11.00;99.90;;;;;;5038709;28;20483;-78
2023/02/17 06:35:20;;;;;;;28.70;21.85;;;11.10;99.90;;;;;;5043301;28;20060;-76
2023/02/17 06:37:46;;;;;;;34.15;21.83;;;11.10;99.90;;;;;;5040125;28;20018;-77
2023/02/17 06:40:14;;;;;;;35.03;23.13;;;11.10;99.90;;;;;;5045656;28;20036;-77
2023/02/17 06:42:39;;;;;;;31.10;21.58;;;11.10;99.90;;;;;;5041994;28;20119;-76
2023/02/17 06:45:05;;;;;;;29.08;21.20;;;11.10;99.90;;;;;;5045903;28;20136;-77
2023/02/17 06:47:32;;;;;;;31.58;21.17;;;11.10;99.90;;;;;;5042028;28;20051;-77
2023/02/17 06:49:58;;;;;;;32.33;22.48;;;11.10;99.90;;;;;;5040560;28;20112;-76
2023/02/17 06:52:23;;;;;;;34.53;23.80;;;11.10;99.90;;;;;;5046581;28;20116;-76
2023/02/17 06:54:49;;;;;;;31.35;22.70;;;11.00;99.90;;;;;;5047656;28;20029;-75
2023/02/17 06:57:17;;;;;;;32.35;21.67;;;11.10;99.90;;;;;;5053355;28;20079;-76
2023/02/17 06:59:42;;;;;;;32.22;22.15;;;11.10;99.90;;;;;;5053127;28;20031;-77
2023/02/17 07:02:12;;;;;;;30.83;20.67;;;11.10;99.90;;;;;;5054890;28;20041;-76
2023/02/17 07:04:39;;;;;;;30.98;21.40;;;11.10;99.90;;;;;;5051025;28;20523;-77
2023/02/17 07:07:05;;;;;;;28.80;18.50;;;11.10;99.90;;;;;;5042566;28;20036;-77
2023/02/17 07:09:31;;;;;;;29.02;18.15;;;11.20;99.90;;;;;;5050340;28;20025;-78
2023/02/17 07:11:56;;;;;;;33.90;21.65;;;11.20;99.90;;;;;;5051021;28;20040;-76
2023/02/17 07:14:23;;;;;;;29.58;20.48;;;11.20;99.90;;;;;;5052405;28;20029;-77
2023/02/17 07:16:49;;;;;;;30.10;20.75;;;11.30;99.90;;;;;;5048903;28;20530;-76
2023/02/17 07:19:15;;;;;;;26.25;18.67;;;11.30;99.90;;;;;;5050606;28;20052;-77
2023/02/17 07:21:47;;;;;;;29.23;20.48;;;11.30;99.90;;;;;;5051093;28;20044;-77
2023/02/17 07:24:12;;;;;;;26.60;18.90;;;11.30;99.90;;;;;;5043179;28;20021;-77
2023/02/17 07:26:39;;;;;;;28.00;19.02;;;11.30;99.90;;;;;;5044639;28;20102;-76
2023/02/17 07:29:06;;;;;;;30.52;21.58;;;11.30;99.90;;;;;;5044435;28;20140;-76
2023/02/17 07:31:33;;;;;;;28.77;18.98;;;11.30;99.90;;;;;;5040900;28;20423;-78
2023/02/17 07:34:00;;;;;;;33.15;20.30;;;11.30;99.90;;;;;;5043462;28;20021;-76
2023/02/17 07:36:27;;;;;;;31.83;21.23;;;11.30;99.90;;;;;;5042933;28;20475;-76
2023/02/17 07:38:53;;;;;;;31.38;22.38;;;11.40;99.90;;;;;;5049805;28;20025;-77
2023/02/17 07:41:23;;;;;;;29.52;20.23;;;11.30;99.90;;;;;;5031856;28;20033;-77
2023/02/17 07:43:52;;;;;;;24.77;17.77;;;11.40;99.90;;;;;;5052342;28;20074;-76
2023/02/17 07:46:17;;;;;;;28.63;19.45;;;11.40;99.90;;;;;;5038464;28;20029;-77
2023/02/17 07:48:43;;;;;;;28.02;20.15;;;11.40;99.90;;;;;;5042883;28;20029;-77
2023/02/17 07:51:15;;;;;;;25.15;19.08;;;11.40;99.90;;;;;;5042638;28;20115;-77
2023/02/17 07:53:41;;;;;;;31.35;21.25;;;11.40;99.90;;;;;;5042360;28;20455;-77
2023/02/17 07:56:09;;;;;;;28.67;20.90;;;11.50;99.90;;;;;;5038287;28;20025;-76
2023/02/17 07:58:37;;;;;;;23.50;17.17;;;11.50;99.90;;;;;;5041136;28;20025;-77
2023/02/17 08:01:12;;;;;;;28.23;19.60;;;11.50;99.90;;;;;;5037836;28;20132;-78
2023/02/17 08:03:38;;;;;;;28.88;20.98;;;11.50;99.90;;;;;;5042847;28;20060;-76
2023/02/17 08:06:08;;;;;;;26.45;20.42;;;11.60;99.90;;;;;;5040704;28;20025;-77
2023/02/17 08:14:02;;;;;;;25.40;17.80;;;11.60;99.90;;;;;;5044941;28;20023;-76
2023/02/17 08:16:29;;;;;;;25.38;19.67;;;11.60;99.90;;;;;;5038691;28;20030;-77
2023/02/17 08:18:56;;;;;;;27.08;20.80;;;11.60;99.90;;;;;;5041155;28;20039;-76
2023/02/17 08:21:23;;;;;;;25.67;16.83;;;11.70;99.90;;;;;;5048096;28;20033;-77
2023/02/17 08:23:49;;;;;;;22.35;16.65;;;11.60;99.90;;;;;;5034557;28;20025;-77
2023/02/17 08:26:16;;;;;;;24.55;18.02;;;11.70;99.90;;;;;;5034667;28;20026;-77
2023/02/17 08:28:43;;;;;;;22.80;17.23;;;11.60;99.90;;;;;;5035280;28;20151;-76
2023/02/17 08:31:16;;;;;;;25.00;17.98;;;11.60;99.90;;;;;;5036648;28;20057;-81
2023/02/17 08:33:43;;;;;;;27.08;18.48;;;11.70;99.90;;;;;;5033622;28;20036;-77
2023/02/17 08:36:09;;;;;;;21.90;16.38;;;11.70;99.90;;;;;;5039074;28;20049;-78
2023/02/17 08:38:35;;;;;;;23.38;16.40;;;11.70;99.90;;;;;;5034054;28;20025;-77
2023/02/17 08:41:15;;;;;;;21.27;15.45;;;11.70;99.90;;;;;;5040645;28;20855;-77
2023/02/17 08:43:41;;;;;;;22.90;15.38;;;11.80;99.90;;;;;;5031598;28;20025;-77
2023/02/17 08:46:09;;;;;;;21.98;15.90;;;11.80;99.90;;;;;;5034981;28;20100;-76
2023/02/17 08:48:35;;;;;;;18.73;14.13;;;11.80;99.90;;;;;;5046037;28;20056;-77
2023/02/17 08:51:01;;;;;;;21.92;15.25;;;11.80;99.90;;;;;;5036583;28;20625;-76
2023/02/17 08:53:26;;;;;;;18.55;13.68;;;11.80;99.90;;;;;;5031489;28;20105;-76
2023/02/17 08:55:52;;;;;;;21.08;14.57;;;11.80;99.90;;;;;;5046739;28;20029;-76
2023/02/17 08:58:18;;;;;;;17.55;12.93;;;11.80;99.90;;;;;;5034469;28;20033;-75
2023/02/17 09:00:43;;;;;;;19.75;12.95;;;11.90;99.90;;;;;;5037377;28;20083;-76
2023/02/17 09:03:09;;;;;;;18.13;13.80;;;11.90;99.90;;;;;;5042457;28;20026;-76
2023/02/17 09:05:35;;;;;;;14.82;11.73;;;11.90;99.90;;;;;;5035619;28;20531;-76
2023/02/17 09:08:01;;;;;;;15.98;11.57;;;11.90;99.90;;;;;;5036980;28;20029;-75
2023/02/17 09:10:26;;;;;;;18.38;11.23;;;12.10;99.90;;;;;;5048122;28;20495;-77
2023/02/17 09:12:52;;;;;;;15.57;11.85;;;12.00;99.90;;;;;;5040338;28;20041;-76
2023/02/17 09:15:18;;;;;;;15.95;11.57;;;12.00;99.90;;;;;;5034969;28;20112;-75
2023/02/17 09:17:44;;;;;;;14.40;10.25;;;12.00;99.90;;;;;;5029777;28;20072;-76
2023/02/17 09:20:10;;;;;;;13.57;10.98;;;12.00;99.90;;;;;;5034070;28;20029;-77
2023/02/17 09:22:36;;;;;;;13.80;10.52;;;12.10;99.90;;;;;;5036417;28;20021;-77
2023/02/17 09:25:03;;;;;;;14.18;9.45;;;12.10;99.90;;;;;;5032784;28;20029;-76
2023/02/17 09:27:29;;;;;;;12.98;9.77;;;12.10;99.90;;;;;;5042960;28;20037;-75
2023/02/17 09:29:54;;;;;;;14.00;9.30;;;12.10;99.90;;;;;;5038966;28;20024;-76
2023/02/17 09:32:20;;;;;;;15.45;11.05;;;12.00;99.90;;;;;;5036251;28;20068;-76
2023/02/17 09:34:52;;;;;;;14.23;9.70;;;12.10;99.90;;;;;;5045563;28;20060;-77
2023/02/17 09:37:18;;;;;;;13.55;8.98;;;12.10;99.90;;;;;;5034024;28;20419;-76
2023/02/17 09:39:45;;;;;;;13.63;10.63;;;12.10;99.90;;;;;;5036126;28;20032;-76
2023/02/17 09:42:21;;;;;;;16.13;9.63;;;12.10;99.90;;;;;;5034460;28;20104;-75
2023/02/17 09:45:03;;;;;;;14.55;10.40;;;12.10;99.90;;;;;;5041183;28;20030;-76
2023/02/17 09:47:37;;;;;;;13.93;9.82;;;12.10;99.90;;;;;;5047099;28;20021;-76
2023/02/17 09:50:07;;;;;;;13.05;9.55;;;12.10;99.90;;;;;;5038986;28;20035;-76
2023/02/17 09:52:52;;;;;;;13.65;8.95;;;12.10;99.90;;;;;;5039210;28;20033;-76
2023/02/17 09:55:28;;;;;;;13.02;8.45;;;12.10;99.90;;;;;;5034829;28;20516;-77
2023/02/17 09:58:02;;;;;;;11.75;8.70;;;12.10;99.90;;;;;;5038260;28;20025;-77
2023/02/17 10:00:52;;;;;;;14.80;9.52;;;12.20;99.90;;;;;;5033534;28;20057;-76
2023/02/17 10:03:38;;;;;;;11.07;7.15;;;12.20;99.90;;;;;;5034864;28;20029;-77
2023/02/17 10:06:09;;;;;;;14.45;8.02;;;12.10;99.90;;;;;;5039699;28;20417;-77
2023/02/17 10:08:48;;;;;;;11.10;8.05;;;12.20;99.90;;;;;;5035779;28;20352;-77
2023/02/17 10:11:22;;;;;;;12.48;8.15;;;12.10;99.90;;;;;;5029316;28;20068;-76
2023/02/17 10:13:49;;;;;;;9.85;6.93;;;12.10;99.90;;;;;;5042545;28;20018;-77
2023/02/17 10:16:22;;;;;;;12.88;8.02;;;12.10;99.90;;;;;;5040219;28;20387;-76
2023/02/17 10:18:59;;;;;;;9.43;7.50;;;12.20;99.90;;;;;;5037389;28;20053;-78
2023/02/17 10:21:34;;;;;;;11.63;6.95;;;12.20;99.90;;;;;;5038483;28;20036;-78
2023/02/17 10:24:00;;;;;;;10.32;6.68;;;12.30;99.90;;;;;;5041594;28;20107;-76
2023/02/17 10:26:39;;;;;;;10.45;7.40;;;12.30;99.90;;;;;;5038448;28;20571;-77
2023/02/17 10:29:25;;;;;;;10.45;6.72;;;12.30;99.90;;;;;;5043211;28;20038;-78
2023/02/17 10:32:21;;;;;;;10.82;7.00;;;12.30;99.80;;;;;;5038732;28;20057;-75
2023/02/17 10:35:10;;;;;;;12.98;8.27;;;12.20;99.80;;;;;;5040318;28;20025;-77
2023/02/17 10:37:49;;;;;;;10.18;6.65;;;12.30;99.90;;;;;;5034368;28;20022;-76
2023/02/17 10:40:27;;;;;;;10.73;7.28;;;12.20;99.90;;;;;;5034176;28;20029;-75
2023/02/17 10:43:01;;;;;;;10.60;7.45;;;12.20;99.80;;;;;;5041444;28;20097;-78
2023/02/17 10:45:34;;;;;;;10.77;6.65;;;12.30;99.90;;;;;;5040346;28;20021;-79
2023/02/17 10:48:12;;;;;;;11.68;7.72;;;12.20;99.90;;;;;;5038113;28;20094;-75
2023/02/17 10:50:40;;;;;;;10.43;6.93;;;12.20;99.80;;;;;;5036977;28;20021;-76
2023/02/17 10:53:16;;;;;;;12.90;7.50;;;12.20;99.90;;;;;;5035764;28;20041;-77
2023/02/17 10:56:01;;;;;;;9.02;6.38;;;12.20;99.80;;;;;;5041874;28;20056;-77
2023/02/17 10:58:38;;;;;;;10.45;7.32;;;12.20;99.90;;;;;;5034797;28;20471;-77
2023/02/17 11:01:05;;;;;;;9.10;6.40;;;12.20;99.90;;;;;;5037050;28;20030;-77
2023/02/17 11:03:32;;;;;;;10.00;7.38;;;12.20;99.90;;;;;;5045051;28;20037;-77
2023/02/17 11:06:13;;;;;;;11.02;6.53;;;12.20;99.90;;;;;;5040169;28;20025;-76
2023/02/17 11:08:45;;;;;;;10.15;6.97;;;12.20;99.90;;;;;;5041171;28;20017;-74
2023/02/17 11:11:28;;;;;;;10.73;7.03;;;12.20;99.90;;;;;;5035569;28;20457;-77
2023/02/17 11:14:22;;;;;;;12.05;8.00;;;12.20;99.90;;;;;;5040936;28;20021;-75
2023/02/17 11:17:00;;;;;;;12.23;8.00;;;12.20;99.80;;;;;;5040631;28;20472;-76
2023/02/17 11:19:33;;;;;;;12.50;7.65;;;12.20;99.80;;;;;;5042731;28;20031;-75
2023/02/17 11:22:03;;;;;;;12.27;8.35;;;12.30;99.80;;;;;;5047107;28;20041;-77
2023/02/17 11:24:32;;;;;;;9.45;6.75;;;12.20;99.60;;;;;;5038904;28;20033;-76
2023/02/17 11:27:10;;;;;;;17.77;10.77;;;12.20;99.80;;;;;;5042114;28;20108;-77
2023/02/17 11:29:35;;;;;;;14.05;8.82;;;12.20;99.80;;;;;;5038952;28;20033;-78
2023/02/17 11:32:05;;;;;;;12.85;8.38;;;12.30;99.60;;;;;;5043033;28;20403;-77
2023/02/17 11:34:33;;;;;;;;;;;12.30;99.70;;;;;;5040296;28;20414;-77
2023/02/17 11:37:48;;;;;;;13.35;8.15;;;12.20;99.80;;;;;;5048455;28;19909;-76
2023/02/17 11:40:24;;;;;;;13.63;9.48;;;12.20;99.90;;;;;;5038980;28;20133;-77
2023/02/17 11:43:00;;;;;;;13.73;8.82;;;12.20;99.90;;;;;;5044231;28;20037;-76
2023/02/17 11:45:42;;;;;;;14.57;9.82;;;12.30;99.80;;;;;;5039949;28;20079;-78
2023/02/17 11:48:24;;;;;;;16.17;9.40;;;12.30;99.90;;;;;;5038912;28;20024;-77
2023/02/17 11:51:16;;;;;;;12.88;8.80;;;12.30;99.90;;;;;;5046258;28;20025;-77
2023/02/17 11:54:03;;;;;;;15.98;9.73;;;12.30;99.80;;;;;;5041049;28;20029;-76
2023/02/17 11:56:35;;;;;;;13.77;9.60;;;12.30;99.90;;;;;;5034920;28;20026;-76
2023/02/17 11:59:10;;;;;;;15.55;9.20;;;12.30;99.80;;;;;;5036048;28;20044;-75
2023/02/17 12:01:58;;;;;;;14.98;8.80;;;12.30;99.90;;;;;;5038020;28;20025;-76
2023/02/17 12:04:31;;;;;;;13.32;8.68;;;12.30;99.90;;;;;;5032471;28;20070;-74
2023/02/17 12:07:30;;;;;;;12.48;8.55;;;12.30;99.80;;;;;;5036932;28;20025;-79
2023/02/17 12:10:14;;;;;;;17.08;9.40;;;12.30;99.90;;;;;;5034883;28;20038;-79
2023/02/17 12:12:57;;;;;;;12.90;8.80;;;12.30;99.90;;;;;;5034420;28;20055;-76
2023/02/17 12:15:46;;;;;;;11.52;8.15;;;12.30;99.90;;;;;;5031786;28;20022;-77
2023/02/17 12:18:37;;;;;;;13.45;8.75;;;12.30;99.90;;;;;;5030258;28;20045;-78
2023/02/17 12:21:24;;;;;;;12.38;8.88;;;12.40;99.90;;;;;;5036357;28;20029;-76
2023/02/17 12:23:50;;;;;;;15.30;7.85;;;12.40;99.80;;;;;;5029177;28;20030;-74
2023/02/17 12:26:27;;;;;;;13.75;8.25;;;12.40;99.90;;;;;;5034518;28;20414;-75
2023/02/17 12:29:23;;;;;;;13.27;8.27;;;12.40;99.90;;;;;;5033293;28;20025;-78
2023/02/17 12:32:16;;;;;;;12.50;8.93;;;12.40;99.80;;;;;;5035001;28;20095;-77
2023/02/17 12:34:54;;;;;;;14.23;9.35;;;12.40;99.80;;;;;;5034659;28;20028;-77
2023/02/17 12:37:30;;;;;;;15.07;9.55;;;12.40;99.80;;;;;;5032546;28;20036;-77
2023/02/17 12:40:05;;;;;;;15.10;10.40;;;12.40;99.80;;;;;;5031884;28;20021;-75
2023/02/17 12:42:42;;;;;;;18.02;9.25;;;12.30;99.80;;;;;;5030058;28;20376;-76
2023/02/17 12:45:19;;;;;;;16.25;8.82;;;12.30;99.90;;;;;;5031644;28;20116;-76
2023/02/17 12:48:10;;;;;;;18.27;10.13;;;12.30;99.70;;;;;;5031299;28;20033;-76
2023/02/17 12:50:56;;;;;;;14.02;9.80;;;12.20;99.70;;;;;;5033394;28;20033;-74
2023/02/17 12:54:04;;;;;;;13.43;9.05;;;12.30;99.60;;;;;;5029041;28;20120;-76